sensor_id;sensor_type;location;lat;lon;timestamp;P1;durP1;ratioP1;P2;durP2;ratioP2
58972;SDS011;44750;52.040;7.472;2023-04-15T00:22:08;3.58;;;1.88;;
58972;SDS011;44750;52.040;7.472;2023-04-15T00:27:08;2.35;;;1.50;;
58972;SDS011;44750;52.040;7.472;2023-04-15T00:32:09;1.75;;;1.63;;
58972;SDS011;44750;52.040;7.472;2023-04-15T00:37:09;3.37;;;1.80;;
58972;SDS011;44750;52.040;7.472;2023-04-15T00:42:09;20.20;;;1.70;;
58972;SDS011;44750;52.040;7.472;2023-04-15T00:47:10;2.43;;;1.77;;
58972;SDS011;44750;52.040;7.472;2023-04-15T00:52:10;1.87;;;1.63;;
58972;SDS011;44750;52.040;7.472;2023-04-15T00:57:10;8.45;;;2.25;;
58972;SDS011;44750;52.040;7.472;2023-04-15T01:02:10;3.00;;;1.83;;
58972;SDS011;44750;52.040;7.472;2023-04-15T01:07:11;1.13;;;1.03;;
58972;SDS011;44750;52.040;7.472;2023-04-15T01:12:11;2.38;;;1.70;;
58972;SDS011;44750;52.040;7.472;2023-04-15T01:17:13;2.60;;;1.80;;
58972;SDS011;44750;52.040;7.472;2023-04-15T01:22:13;2.28;;;1.52;;
58972;SDS011;44750;52.040;7.472;2023-04-15T01:27:14;2.33;;;1.80;;
58972;SDS011;44750;52.040;7.472;2023-04-15T01:32:14;3.25;;;1.95;;
58972;SDS011;44750;52.040;7.472;2023-04-15T01:37:14;2.37;;;1.60;;
58972;SDS011;44750;52.040;7.472;2023-04-15T01:42:14;5.07;;;2.10;;
58972;SDS011;44750;52.040;7.472;2023-04-15T01:47:15;2.25;;;1.65;;
58972;SDS011;44750;52.040;7.472;2023-04-15T01:52:15;4.22;;;2.38;;
58972;SDS011;44750;52.040;7.472;2023-04-15T01:57:15;1.92;;;1.50;;
58972;SDS011;44750;52.040;7.472;2023-04-15T02:02:15;2.83;;;1.95;;
58972;SDS011;44750;52.040;7.472;2023-04-15T02:07:16;1.38;;;1.25;;
58972;SDS011;44750;52.040;7.472;2023-04-15T02:12:16;2.60;;;1.60;;
58972;SDS011;44750;52.040;7.472;2023-04-15T02:17:16;4.68;;;1.92;;
58972;SDS011;44750;52.040;7.472;2023-04-15T02:22:16;2.47;;;1.90;;
58972;SDS011;44750;52.040;7.472;2023-04-15T02:27:17;3.42;;;2.20;;
58972;SDS011;44750;52.040;7.472;2023-04-15T02:32:17;2.28;;;1.55;;
58972;SDS011;44750;52.040;7.472;2023-04-15T02:37:17;2.03;;;1.45;;
58972;SDS011;44750;52.040;7.472;2023-04-15T02:42:17;2.35;;;1.90;;
58972;SDS011;44750;52.040;7.472;2023-04-15T02:47:18;18.38;;;2.13;;
58972;SDS011;44750;52.040;7.472;2023-04-15T02:52:18;4.13;;;2.10;;
58972;SDS011;44750;52.040;7.472;2023-04-15T02:57:18;2.30;;;2.03;;
58972;SDS011;44750;52.040;7.472;2023-04-15T03:02:18;2.92;;;2.28;;
58972;SDS011;44750;52.040;7.472;2023-04-15T03:07:19;3.00;;;1.92;;
58972;SDS011;44750;52.040;7.472;2023-04-15T03:12:19;6.50;;;2.10;;
58972;SDS011;44750;52.040;7.472;2023-04-15T03:17:19;1.90;;;1.52;;
58972;SDS011;44750;52.040;7.472;2023-04-15T03:22:19;3.25;;;1.85;;
58972;SDS011;44750;52.040;7.472;2023-04-15T03:27:19;4.03;;;2.20;;
58972;SDS011;44750;52.040;7.472;2023-04-15T03:32:20;4.18;;;2.22;;
58972;SDS011;44750;52.040;7.472;2023-04-15T03:37:20;3.10;;;2.03;;
58972;SDS011;44750;52.040;7.472;2023-04-15T03:42:20;3.55;;;2.13;;
58972;SDS011;44750;52.040;7.472;2023-04-15T06:35:23;7.63;;;3.78;;
58972;SDS011;44750;52.040;7.472;2023-04-15T06:40:23;6.45;;;3.38;;
58972;SDS011;44750;52.040;7.472;2023-04-15T06:45:23;4.28;;;2.97;;
58972;SDS011;44750;52.040;7.472;2023-04-15T06:50:23;3.57;;;2.87;;
58972;SDS011;44750;52.040;7.472;2023-04-15T06:55:23;6.95;;;3.80;;
58972;SDS011;44750;52.040;7.472;2023-04-15T07:00:24;4.68;;;3.03;;
58972;SDS011;44750;52.040;7.472;2023-04-15T07:05:24;5.00;;;3.20;;
58972;SDS011;44750;52.040;7.472;2023-04-15T07:10:24;5.15;;;3.85;;
58972;SDS011;44750;52.040;7.472;2023-04-15T07:15:24;3.35;;;3.03;;
58972;SDS011;44750;52.040;7.472;2023-04-15T07:20:25;4.72;;;2.92;;
58972;SDS011;44750;52.040;7.472;2023-04-15T07:25:25;4.07;;;2.78;;
58972;SDS011;44750;52.040;7.472;2023-04-15T07:30:25;5.75;;;3.65;;
58972;SDS011;44750;52.040;7.472;2023-04-15T07:35:25;7.22;;;3.70;;
58972;SDS011;44750;52.040;7.472;2023-04-15T07:40:26;4.80;;;3.47;;
58972;SDS011;44750;52.040;7.472;2023-04-15T07:45:26;4.80;;;3.67;;
58972;SDS011;44750;52.040;7.472;2023-04-15T07:50:27;3.70;;;3.28;;
58972;SDS011;44750;52.040;7.472;2023-04-15T07:55:27;2.50;;;2.30;;
58972;SDS011;44750;52.040;7.472;2023-04-15T08:00:28;3.53;;;3.17;;
58972;SDS011;44750;52.040;7.472;2023-04-15T08:05:28;5.03;;;2.92;;
58972;SDS011;44750;52.040;7.472;2023-04-15T08:10:28;5.03;;;3.65;;
58972;SDS011;44750;52.040;7.472;2023-04-15T08:15:29;4.20;;;3.38;;
58972;SDS011;44750;52.040;7.472;2023-04-15T08:20:29;2.53;;;2.25;;
58972;SDS011;44750;52.040;7.472;2023-04-15T08:25:29;7.63;;;2.67;;
58972;SDS011;44750;52.040;7.472;2023-04-15T08:30:29;4.78;;;3.17;;
58972;SDS011;44750;52.040;7.472;2023-04-15T08:35:31;2.60;;;2.40;;
58972;SDS011;44750;52.040;7.472;2023-04-15T08:40:34;3.28;;;2.38;;
58972;SDS011;44750;52.040;7.472;2023-04-15T08:45:43;3.00;;;2.47;;
58972;SDS011;44750;52.040;7.472;2023-04-15T08:50:45;3.92;;;2.88;;
58972;SDS011;44750;52.040;7.472;2023-04-15T08:55:48;3.17;;;2.38;;
58972;SDS011;44750;52.040;7.472;2023-04-15T09:05:51;4.28;;;2.90;;
58972;SDS011;44750;52.040;7.472;2023-04-15T09:10:52;2.90;;;2.43;;
58972;SDS011;44750;52.040;7.472;2023-04-15T09:15:53;2.92;;;2.25;;
58972;SDS011;44750;52.040;7.472;2023-04-15T09:20:53;2.83;;;2.00;;
58972;SDS011;44750;52.040;7.472;2023-04-15T09:25:53;4.07;;;2.87;;
58972;SDS011;44750;52.040;7.472;2023-04-15T09:30:54;2.33;;;2.13;;
58972;SDS011;44750;52.040;7.472;2023-04-15T09:35:58;2.92;;;2.25;;
58972;SDS011;44750;52.040;7.472;2023-04-15T09:41:00;2.92;;;2.42;;
58972;SDS011;44750;52.040;7.472;2023-04-15T09:46:00;2.42;;;2.17;;
58972;SDS011;44750;52.040;7.472;2023-04-15T09:51:01;3.20;;;2.53;;
58972;SDS011;44750;52.040;7.472;2023-04-15T09:56:01;2.17;;;1.87;;
58972;SDS011;44750;52.040;7.472;2023-04-15T10:01:02;2.35;;;1.85;;
58972;SDS011;44750;52.040;7.472;2023-04-15T10:06:03;2.67;;;1.80;;
58972;SDS011;44750;52.040;7.472;2023-04-15T10:11:04;1.98;;;1.67;;
58972;SDS011;44750;52.040;7.472;2023-04-15T10:16:06;1.63;;;1.50;;
58972;SDS011;44750;52.040;7.472;2023-04-15T10:21:09;2.13;;;1.50;;
58972;SDS011;44750;52.040;7.472;2023-04-15T10:26:10;4.03;;;1.93;;
58972;SDS011;44750;52.040;7.472;2023-04-15T10:31:11;2.38;;;2.17;;
58972;SDS011;44750;52.040;7.472;2023-04-15T10:36:12;2.00;;;1.80;;
58972;SDS011;44750;52.040;7.472;2023-04-15T10:41:24;2.83;;;1.98;;
58972;SDS011;44750;52.040;7.472;2023-04-15T10:51:43;2.58;;;1.80;;
58972;SDS011;44750;52.040;7.472;2023-04-15T10:56:45;3.28;;;1.90;;
58972;SDS011;44750;52.040;7.472;2023-04-15T11:01:59;1.55;;;1.23;;
58972;SDS011;44750;52.040;7.472;2023-04-15T11:07:06;1.75;;;0.93;;
58972;SDS011;44750;52.040;7.472;2023-04-15T11:12:07;1.38;;;1.27;;
58972;SDS011;44750;52.040;7.472;2023-04-15T11:17:08;1.00;;;0.85;;
58972;SDS011;44750;52.040;7.472;2023-04-15T11:22:09;1.25;;;1.08;;
58972;SDS011;44750;52.040;7.472;2023-04-15T11:27:18;1.27;;;1.17;;
58972;SDS011;44750;52.040;7.472;2023-04-15T11:32:23;1.55;;;1.40;;
58972;SDS011;44750;52.040;7.472;2023-04-15T11:37:27;1.38;;;1.10;;
58972;SDS011;44750;52.040;7.472;2023-04-15T11:42:28;2.28;;;1.75;;
58972;SDS011;44750;52.040;7.472;2023-04-15T11:47:29;1.13;;;1.03;;
58972;SDS011;44750;52.040;7.472;2023-04-15T11:52:29;1.33;;;0.93;;
58972;SDS011;44750;52.040;7.472;2023-04-15T11:57:33;2.80;;;1.00;;
58972;SDS011;44750;52.040;7.472;2023-04-15T12:02:35;1.02;;;0.90;;
58972;SDS011;44750;52.040;7.472;2023-04-15T12:12:58;2.45;;;1.35;;
58972;SDS011;44750;52.040;7.472;2023-04-15T12:17:58;2.10;;;1.25;;
58972;SDS011;44750;52.040;7.472;2023-04-15T12:23:08;1.35;;;1.25;;
58972;SDS011;44750;52.040;7.472;2023-04-15T12:28:09;0.95;;;0.73;;
58972;SDS011;44750;52.040;7.472;2023-04-15T12:33:10;0.85;;;0.82;;
58972;SDS011;44750;52.040;7.472;2023-04-15T12:38:10;1.80;;;1.02;;
58972;SDS011;44750;52.040;7.472;2023-04-15T12:43:10;1.50;;;0.85;;
58972;SDS011;44750;52.040;7.472;2023-04-15T12:48:11;0.75;;;0.63;;
58972;SDS011;44750;52.040;7.472;2023-04-15T12:53:11;8.30;;;1.42;;
58972;SDS011;44750;52.040;7.472;2023-04-15T12:58:11;9.57;;;1.50;;
58972;SDS011;44750;52.040;7.472;2023-04-15T13:03:11;1.48;;;1.15;;
58972;SDS011;44750;52.040;7.472;2023-04-15T13:08:12;2.50;;;1.75;;
58972;SDS011;44750;52.040;7.472;2023-04-15T13:13:12;1.73;;;0.65;;
58972;SDS011;44750;52.040;7.472;2023-04-15T13:18:12;1.58;;;1.20;;
58972;SDS011;44750;52.040;7.472;2023-04-15T13:23:13;1.80;;;0.90;;
58972;SDS011;44750;52.040;7.472;2023-04-15T13:28:13;1.48;;;1.13;;
58972;SDS011;44750;52.040;7.472;2023-04-15T13:33:15;1.00;;;0.90;;
58972;SDS011;44750;52.040;7.472;2023-04-15T13:38:15;1.45;;;1.02;;
58972;SDS011;44750;52.040;7.472;2023-04-15T13:43:16;0.87;;;0.80;;
58972;SDS011;44750;52.040;7.472;2023-04-15T13:48:16;2.67;;;1.43;;
58972;SDS011;44750;52.040;7.472;2023-04-15T13:53:16;4.32;;;0.93;;
58972;SDS011;44750;52.040;7.472;2023-04-15T13:58:17;1.98;;;1.25;;
58972;SDS011;44750;52.040;7.472;2023-04-15T14:03:17;1.15;;;0.95;;
58972;SDS011;44750;52.040;7.472;2023-04-15T14:08:17;1.08;;;0.77;;
58972;SDS011;44750;52.040;7.472;2023-04-15T14:13:17;0.88;;;0.68;;
58972;SDS011;44750;52.040;7.472;2023-04-15T14:18:17;5.43;;;1.10;;
58972;SDS011;44750;52.040;7.472;2023-04-15T14:23:18;3.58;;;1.08;;
58972;SDS011;44750;52.040;7.472;2023-04-15T14:28:18;1.38;;;0.88;;
58972;SDS011;44750;52.040;7.472;2023-04-15T14:33:18;1.20;;;0.90;;
58972;SDS011;44750;52.040;7.472;2023-04-15T14:38:18;1.00;;;0.75;;
58972;SDS011;44750;52.040;7.472;2023-04-15T14:43:19;0.70;;;0.70;;
58972;SDS011;44750;52.040;7.472;2023-04-15T14:48:20;0.55;;;0.55;;
58972;SDS011;44750;52.040;7.472;2023-04-15T14:53:20;1.55;;;0.95;;
58972;SDS011;44750;52.040;7.472;2023-04-15T14:58:20;1.55;;;0.80;;
58972;SDS011;44750;52.040;7.472;2023-04-15T15:03:21;0.75;;;0.75;;
58972;SDS011;44750;52.040;7.472;2023-04-15T15:08:22;1.30;;;0.88;;
58972;SDS011;44750;52.040;7.472;2023-04-15T15:13:22;0.93;;;0.80;;
58972;SDS011;44750;52.040;7.472;2023-04-15T15:18:23;1.47;;;0.80;;
58972;SDS011;44750;52.040;7.472;2023-04-15T15:23:23;0.73;;;0.73;;
58972;SDS011;44750;52.040;7.472;2023-04-15T15:28:23;0.80;;;0.50;;
58972;SDS011;44750;52.040;7.472;2023-04-15T15:33:24;1.47;;;0.83;;
58972;SDS011;44750;52.040;7.472;2023-04-15T15:38:24;1.40;;;1.00;;
58972;SDS011;44750;52.040;7.472;2023-04-15T15:43:24;0.87;;;0.80;;
58972;SDS011;44750;52.040;7.472;2023-04-15T15:48:24;3.85;;;0.90;;
58972;SDS011;44750;52.040;7.472;2023-04-15T15:53:25;1.95;;;0.93;;
58972;SDS011;44750;52.040;7.472;2023-04-15T15:58:25;1.35;;;0.68;;
58972;SDS011;44750;52.040;7.472;2023-04-15T16:03:25;2.25;;;1.40;;
58972;SDS011;44750;52.040;7.472;2023-04-15T16:08:26;3.23;;;1.53;;
58972;SDS011;44750;52.040;7.472;2023-04-15T16:13:26;1.52;;;1.17;;
58972;SDS011;44750;52.040;7.472;2023-04-15T16:18:26;2.17;;;1.83;;
58972;SDS011;44750;52.040;7.472;2023-04-15T16:23:27;5.60;;;1.70;;
58972;SDS011;44750;52.040;7.472;2023-04-15T16:28:27;2.47;;;1.63;;
58972;SDS011;44750;52.040;7.472;2023-04-15T16:33:27;4.45;;;1.77;;
58972;SDS011;44750;52.040;7.472;2023-04-15T16:38:27;2.40;;;1.63;;
58972;SDS011;44750;52.040;7.472;2023-04-15T16:43:28;11.20;;;2.15;;
58972;SDS011;44750;52.040;7.472;2023-04-15T16:48:28;1.83;;;1.65;;
58972;SDS011;44750;52.040;7.472;2023-04-15T16:53:31;2.40;;;1.55;;
58972;SDS011;44750;52.040;7.472;2023-04-15T16:58:32;2.20;;;1.70;;
58972;SDS011;44750;52.040;7.472;2023-04-15T17:03:32;3.03;;;1.98;;
58972;SDS011;44750;52.040;7.472;2023-04-15T17:08:32;2.22;;;1.83;;
58972;SDS011;44750;52.040;7.472;2023-04-15T17:13:32;2.35;;;1.40;;
58972;SDS011;44750;52.040;7.472;2023-04-15T17:18:33;1.27;;;1.17;;
58972;SDS011;44750;52.040;7.472;2023-04-15T17:23:33;2.15;;;1.80;;
58972;SDS011;44750;52.040;7.472;2023-04-15T17:28:33;2.50;;;1.40;;
58972;SDS011;44750;52.040;7.472;2023-04-15T17:33:34;3.28;;;1.80;;
58972;SDS011;44750;52.040;7.472;2023-04-15T17:38:34;3.17;;;2.05;;
58972;SDS011;44750;52.040;7.472;2023-04-15T17:43:34;3.08;;;1.50;;
58972;SDS011;44750;52.040;7.472;2023-04-15T17:48:34;1.80;;;1.65;;
58972;SDS011;44750;52.040;7.472;2023-04-15T17:53:34;8.07;;;2.53;;
58972;SDS011;44750;52.040;7.472;2023-04-15T17:58:35;3.42;;;1.83;;
58972;SDS011;44750;52.040;7.472;2023-04-15T18:03:35;5.30;;;2.83;;
58972;SDS011;44750;52.040;7.472;2023-04-15T18:08:35;2.33;;;1.85;;
58972;SDS011;44750;52.040;7.472;2023-04-15T18:13:35;6.28;;;3.00;;
58972;SDS011;44750;52.040;7.472;2023-04-15T18:18:36;5.50;;;1.85;;
58972;SDS011;44750;52.040;7.472;2023-04-15T18:23:36;2.53;;;2.20;;
58972;SDS011;44750;52.040;7.472;2023-04-15T18:28:37;3.78;;;2.50;;
58972;SDS011;44750;52.040;7.472;2023-04-15T18:33:37;3.15;;;2.22;;
58972;SDS011;44750;52.040;7.472;2023-04-15T18:38:38;3.83;;;2.75;;
58972;SDS011;44750;52.040;7.472;2023-04-15T18:43:38;13.63;;;3.57;;
58972;SDS011;44750;52.040;7.472;2023-04-15T18:48:38;3.87;;;2.60;;
58972;SDS011;44750;52.040;7.472;2023-04-15T18:53:38;3.22;;;2.80;;
58972;SDS011;44750;52.040;7.472;2023-04-15T18:58:39;3.67;;;2.63;;
58972;SDS011;44750;52.040;7.472;2023-04-15T19:03:39;4.07;;;2.25;;
58972;SDS011;44750;52.040;7.472;2023-04-15T19:08:39;4.65;;;2.63;;
58972;SDS011;44750;52.040;7.472;2023-04-15T19:13:39;8.15;;;2.92;;
58972;SDS011;44750;52.040;7.472;2023-04-15T19:18:40;7.50;;;3.15;;
58972;SDS011;44750;52.040;7.472;2023-04-15T19:23:40;4.70;;;2.63;;
58972;SDS011;44750;52.040;7.472;2023-04-15T19:28:40;6.00;;;3.55;;
58972;SDS011;44750;52.040;7.472;2023-04-15T19:33:42;14.63;;;7.75;;
58972;SDS011;44750;52.040;7.472;2023-04-15T19:38:42;5.55;;;3.83;;
58972;SDS011;44750;52.040;7.472;2023-04-15T19:43:42;5.53;;;3.60;;
58972;SDS011;44750;52.040;7.472;2023-04-15T19:48:43;4.88;;;3.63;;
58972;SDS011;44750;52.040;7.472;2023-04-15T19:53:43;6.23;;;2.80;;
58972;SDS011;44750;52.040;7.472;2023-04-15T19:58:46;4.88;;;3.30;;
58972;SDS011;44750;52.040;7.472;2023-04-15T20:03:46;4.20;;;3.65;;
58972;SDS011;44750;52.040;7.472;2023-04-15T20:08:47;5.50;;;3.17;;
58972;SDS011;44750;52.040;7.472;2023-04-15T20:13:47;6.55;;;3.55;;
58972;SDS011;44750;52.040;7.472;2023-04-15T20:18:47;5.40;;;2.90;;
58972;SDS011;44750;52.040;7.472;2023-04-15T20:23:47;11.88;;;4.00;;
58972;SDS011;44750;52.040;7.472;2023-04-15T20:28:48;7.38;;;4.43;;
58972;SDS011;44750;52.040;7.472;2023-04-15T20:33:48;7.05;;;3.92;;
58972;SDS011;44750;52.040;7.472;2023-04-15T20:38:51;11.50;;;4.50;;
58972;SDS011;44750;52.040;7.472;2023-04-15T20:43:54;9.57;;;4.13;;
58972;SDS011;44750;52.040;7.472;2023-04-15T20:48:54;4.18;;;3.30;;
58972;SDS011;44750;52.040;7.472;2023-04-15T20:53:54;6.65;;;3.38;;
58972;SDS011;44750;52.040;7.472;2023-04-15T20:58:54;9.75;;;3.80;;
58972;SDS011;44750;52.040;7.472;2023-04-15T21:03:55;6.32;;;3.72;;
58972;SDS011;44750;52.040;7.472;2023-04-15T21:08:55;9.50;;;4.53;;
58972;SDS011;44750;52.040;7.472;2023-04-15T21:13:55;5.45;;;3.97;;
58972;SDS011;44750;52.040;7.472;2023-04-15T21:18:55;7.10;;;4.13;;
58972;SDS011;44750;52.040;7.472;2023-04-15T21:23:56;8.10;;;4.07;;
58972;SDS011;44750;52.040;7.472;2023-04-15T21:28:57;6.82;;;4.22;;
58972;SDS011;44750;52.040;7.472;2023-04-15T21:33:57;7.70;;;4.27;;
58972;SDS011;44750;52.040;7.472;2023-04-15T21:38:58;7.22;;;4.85;;
58972;SDS011;44750;52.040;7.472;2023-04-15T21:43:58;6.40;;;4.95;;
58972;SDS011;44750;52.040;7.472;2023-04-15T21:48:59;8.38;;;4.38;;
58972;SDS011;44750;52.040;7.472;2023-04-15T21:53:59;15.38;;;3.95;;
58972;SDS011;44750;52.040;7.472;2023-04-15T21:58:59;8.82;;;5.25;;
58972;SDS011;44750;52.040;7.472;2023-04-15T22:03:59;11.15;;;5.15;;
58972;SDS011;44750;52.040;7.472;2023-04-15T22:08:59;11.48;;;5.55;;
58972;SDS011;44750;52.040;7.472;2023-04-15T22:14:00;8.43;;;4.82;;
58972;SDS011;44750;52.040;7.472;2023-04-15T22:19:00;6.22;;;4.82;;
58972;SDS011;44750;52.040;7.472;2023-04-15T22:24:00;7.63;;;5.25;;
58972;SDS011;44750;52.040;7.472;2023-04-15T22:29:00;9.50;;;5.43;;
58972;SDS011;44750;52.040;7.472;2023-04-15T22:34:01;8.80;;;6.15;;
58972;SDS011;44750;52.040;7.472;2023-04-15T22:39:01;11.00;;;5.57;;
58972;SDS011;44750;52.040;7.472;2023-04-15T22:44:01;11.32;;;5.32;;
58972;SDS011;44750;52.040;7.472;2023-04-15T22:49:01;11.73;;;6.80;;
58972;SDS011;44750;52.040;7.472;2023-04-15T22:54:02;8.40;;;5.75;;
58972;SDS011;44750;52.040;7.472;2023-04-15T22:59:02;15.67;;;6.43;;
58972;SDS011;44750;52.040;7.472;2023-04-15T23:04:02;11.48;;;6.65;;
58972;SDS011;44750;52.040;7.472;2023-04-15T23:09:03;7.50;;;5.50;;
58972;SDS011;44750;52.040;7.472;2023-04-15T23:14:03;7.75;;;4.40;;
58972;SDS011;44750;52.040;7.472;2023-04-15T23:19:03;23.27;;;6.57;;
58972;SDS011;44750;52.040;7.472;2023-04-15T23:24:03;12.98;;;6.57;;
58972;SDS011;44750;52.040;7.472;2023-04-15T23:29:04;8.65;;;5.50;;
58972;SDS011;44750;52.040;7.472;2023-04-15T23:34:04;13.82;;;6.53;;
58972;SDS011;44750;52.040;7.472;2023-04-15T23:39:04;6.15;;;5.00;;
58972;SDS011;44750;52.040;7.472;2023-04-15T23:44:04;12.52;;;6.40;;
58972;SDS011;44750;52.040;7.472;2023-04-15T23:49:05;11.23;;;6.97;;
58972;SDS011;44750;52.040;7.472;2023-04-15T23:54:05;13.15;;;6.13;;
58972;SDS011;44750;52.040;7.472;2023-04-15T23:59:05;10.73;;;7.40;;
